Share

Worland, WY

12:52 AM MDT on April 24, 2014 (GMT -0600)
Worland Municipal (KWRL) Elev 4226 ft | 43.97 °N, 107.95 °W | Change Station

Current weather conditions updated 59 minutes ago

Partly Cloudy
Partly Cloudy
35 °F
Feels Like 31 °F
N
5
Wind Variable Wind from East
Sunrise 6:13 AM
Sunset 8:06 PM
Moon Waning Crescent

Today is forecast to be Warmer than yesterday.

Pressure 29.90 in
Visibility 10.0 miles
Clouds Few 10000 ft
Windchill 31 °F
Dew Point 15 °F
Humidity 44%
Rainfall 0.00 in
Snow Depth Not available.
UV 0 out of 16
Pollen 9.30 out of 12
Air Quality Not available.
Flu Activity Sporadic
METAR KWRL 240553Z AUTO 08004KT 10SM FEW100 02/M09 A2989 RMK AO2 SLP125 T00171094 10133 21006 51010

More Conditions Fewer Conditions

Pressure 29.90 in
Visibility 10.0 miles
Clouds Few 10000 ft
Windchill 31 °F
Dew Point 15 °F
Humidity 44%
Rainfall 0.00 in
Snow Depth Not available.
UV 0 out of 16
Pollen 9.30 out of 12
Air Quality Not available.
Flu Activity Sporadic
METAR KWRL 240553Z AUTO 08004KT 10SM FEW100 02/M09 A2989 RMK AO2 SLP125 T00171094 10133 21006 51010

More Conditions Fewer Conditions

10-Day Weather Forecast

Almanac

Astronomy

Apr. 24, 2014 Rise Set
Actual Time 6:13 AM MDT 8:06 PM MDT
Civil Twilight 5:42 AM MDT 8:37 PM MDT
Nautical Twilight 5:05 AM MDT 9:15 PM MDT
Astronomical Twilight 4:24 AM MDT 9:57 PM MDT
Moon 3:37 AM MDT 3:16 PM MDT
Length of Visible Light 14h 55m
Length of Day
13h 53m
Tomorrow will be 2m 46s longer.
Waning Crescent, 28% of the Moon is Illuminated
Today
Waning Crescent
Apr 29
New
May 6
First Quarter
May 14
Full
May 21
Last Quarter

Today's Extremes

State Highs State Lows

Community

  • Stacked
    Stacked
  • clouds approaching Red Sox Nation
    clouds approaching Red Sox Nation
  • Balance
    Balance
  • Nestled In
    Nestled In
  • Stunning Sunrise
    Stunning Sunrise

WunderPhotos

Upload Photos

1,704,569 photos uploaded!

WunderBlogs® & News

Nearby

Snow Depth

Station Depth Elevation
Tie Creek 21 in 6870 ft
Powder River Pass 45 in 9480 ft
Shell Creek 69 in 9580 ft
Bear Trap Meadow 28 in 8200 ft
Middle Powder 53 in 7760 ft

Coastal Water Temperatures

Place Temperature
No Stations Reporting

Earthquake Activity

City Distance Mag. Time & Date
No recent earthquake activity has been reported nearby.
Minimum magnitude displayed is 2.5.

Nearby Weather Stations

Station Location Temp. Windchill Dew Point Humidity Wind Precip. Elev Updated Type
Basin, WY 34.0 °F 34 °F 20 °F 57% SW  at  1.0 mph 0.00 in / hr 4537 ft 12:48 AM MDT Normal
Town Center, Hyattville, WY 33.6 °F 34 °F 20 °F 56% NE  at  0.0 mph 0.00 in / hr 4459 ft 12:50 AM MDT Normal

Show More Stations Show Fewer Stations

What do you think?

We're not finished. Please let us know what you like, what you don't like, and what you are still missing.